sensor_id;sensor_type;location;lat;lon;timestamp;P1;durP1;ratioP1;P2;durP2;ratioP2
60478;SDS011;46321;48.398;11.754;2022-08-18T00:01:20;9.07;;;6.63;;
60478;SDS011;46321;48.398;11.754;2022-08-18T00:03:48;11.60;;;6.85;;
60478;SDS011;46321;48.398;11.754;2022-08-18T00:06:14;11.38;;;6.32;;
60478;SDS011;46321;48.398;11.754;2022-08-18T00:08:41;12.25;;;7.20;;
60478;SDS011;46321;48.398;11.754;2022-08-18T00:11:06;12.07;;;7.73;;
60478;SDS011;46321;48.398;11.754;2022-08-18T00:13:31;13.02;;;6.28;;
60478;SDS011;46321;48.398;11.754;2022-08-18T00:15:57;10.80;;;6.28;;
60478;SDS011;46321;48.398;11.754;2022-08-18T00:18:22;10.45;;;6.18;;
60478;SDS011;46321;48.398;11.754;2022-08-18T00:20:47;8.85;;;6.22;;
60478;SDS011;46321;48.398;11.754;2022-08-18T00:23:13;11.17;;;6.00;;
60478;SDS011;46321;48.398;11.754;2022-08-18T00:25:39;10.68;;;7.07;;
60478;SDS011;46321;48.398;11.754;2022-08-18T00:28:04;9.57;;;6.50;;
60478;SDS011;46321;48.398;11.754;2022-08-18T00:30:30;7.73;;;6.57;;
60478;SDS011;46321;48.398;11.754;2022-08-18T00:32:56;11.02;;;6.47;;
60478;SDS011;46321;48.398;11.754;2022-08-18T00:35:24;10.32;;;6.50;;
60478;SDS011;46321;48.398;11.754;2022-08-18T00:38:02;7.55;;;6.07;;
60478;SDS011;46321;48.398;11.754;2022-08-18T00:40:30;10.90;;;6.07;;
60478;SDS011;46321;48.398;11.754;2022-08-18T00:43:01;8.57;;;6.82;;
60478;SDS011;46321;48.398;11.754;2022-08-18T00:45:30;7.80;;;5.60;;
60478;SDS011;46321;48.398;11.754;2022-08-18T00:47:58;8.43;;;6.07;;
60478;SDS011;46321;48.398;11.754;2022-08-18T00:50:57;10.48;;;6.70;;
60478;SDS011;46321;48.398;11.754;2022-08-18T00:53:28;8.55;;;6.25;;
60478;SDS011;46321;48.398;11.754;2022-08-18T00:56:00;8.65;;;6.80;;
60478;SDS011;46321;48.398;11.754;2022-08-18T00:58:31;11.52;;;5.72;;
60478;SDS011;46321;48.398;11.754;2022-08-18T01:01:01;10.10;;;6.25;;
60478;SDS011;46321;48.398;11.754;2022-08-18T01:03:28;8.95;;;6.28;;
60478;SDS011;46321;48.398;11.754;2022-08-18T01:06:01;8.02;;;6.03;;
60478;SDS011;46321;48.398;11.754;2022-08-18T01:08:30;10.75;;;6.43;;
60478;SDS011;46321;48.398;11.754;2022-08-18T01:10:56;7.70;;;5.90;;
60478;SDS011;46321;48.398;11.754;2022-08-18T01:13:26;8.52;;;6.20;;
60478;SDS011;46321;48.398;11.754;2022-08-18T01:15:54;11.30;;;6.97;;
60478;SDS011;46321;48.398;11.754;2022-08-18T01:18:20;9.98;;;6.32;;
60478;SDS011;46321;48.398;11.754;2022-08-18T01:21:10;8.60;;;6.30;;
60478;SDS011;46321;48.398;11.754;2022-08-18T01:24:06;9.63;;;6.57;;
60478;SDS011;46321;48.398;11.754;2022-08-18T01:26:34;8.57;;;6.55;;
60478;SDS011;46321;48.398;11.754;2022-08-18T01:29:03;11.95;;;6.80;;
60478;SDS011;46321;48.398;11.754;2022-08-18T01:31:38;8.40;;;6.35;;
60478;SDS011;46321;48.398;11.754;2022-08-18T01:34:06;9.63;;;6.90;;
60478;SDS011;46321;48.398;11.754;2022-08-18T01:36:34;11.02;;;7.00;;
60478;SDS011;46321;48.398;11.754;2022-08-18T01:39:06;9.60;;;6.93;;
60478;SDS011;46321;48.398;11.754;2022-08-18T01:41:32;9.77;;;6.85;;
60478;SDS011;46321;48.398;11.754;2022-08-18T01:43:58;9.30;;;6.75;;
60478;SDS011;46321;48.398;11.754;2022-08-18T01:46:26;10.43;;;6.47;;
60478;SDS011;46321;48.398;11.754;2022-08-18T01:48:52;11.90;;;6.93;;
60478;SDS011;46321;48.398;11.754;2022-08-18T01:51:17;10.88;;;7.22;;
60478;SDS011;46321;48.398;11.754;2022-08-18T01:53:44;8.32;;;6.35;;
60478;SDS011;46321;48.398;11.754;2022-08-18T01:56:10;10.02;;;6.70;;
60478;SDS011;46321;48.398;11.754;2022-08-18T01:58:36;9.48;;;7.13;;
60478;SDS011;46321;48.398;11.754;2022-08-18T02:01:01;10.13;;;6.47;;
60478;SDS011;46321;48.398;11.754;2022-08-18T02:03:29;11.35;;;7.35;;
60478;SDS011;46321;48.398;11.754;2022-08-18T02:06:15;10.15;;;7.07;;
60478;SDS011;46321;48.398;11.754;2022-08-18T02:08:43;11.73;;;6.70;;
60478;SDS011;46321;48.398;11.754;2022-08-18T02:11:09;13.15;;;7.20;;
60478;SDS011;46321;48.398;11.754;2022-08-18T02:13:34;9.53;;;6.63;;
60478;SDS011;46321;48.398;11.754;2022-08-18T02:16:00;9.15;;;6.70;;
60478;SDS011;46321;48.398;11.754;2022-08-18T02:18:27;9.05;;;6.88;;
60478;SDS011;46321;48.398;11.754;2022-08-18T02:20:54;8.88;;;6.35;;
60478;SDS011;46321;48.398;11.754;2022-08-18T02:23:21;9.40;;;6.88;;
60478;SDS011;46321;48.398;11.754;2022-08-18T02:25:47;10.13;;;7.00;;
60478;SDS011;46321;48.398;11.754;2022-08-18T02:28:12;9.75;;;7.10;;
60478;SDS011;46321;48.398;11.754;2022-08-18T02:30:38;12.77;;;7.38;;
60478;SDS011;46321;48.398;11.754;2022-08-18T02:33:04;9.25;;;7.10;;
60478;SDS011;46321;48.398;11.754;2022-08-18T02:35:32;12.32;;;7.50;;
60478;SDS011;46321;48.398;11.754;2022-08-18T02:38:01;10.05;;;6.60;;
60478;SDS011;46321;48.398;11.754;2022-08-18T02:40:28;10.05;;;7.35;;
60478;SDS011;46321;48.398;11.754;2022-08-18T02:42:56;9.50;;;6.68;;
60478;SDS011;46321;48.398;11.754;2022-08-18T02:45:21;11.10;;;6.75;;
60478;SDS011;46321;48.398;11.754;2022-08-18T02:47:53;11.70;;;7.30;;
60478;SDS011;46321;48.398;11.754;2022-08-18T02:50:19;11.38;;;7.13;;
60478;SDS011;46321;48.398;11.754;2022-08-18T02:52:46;11.20;;;7.47;;
60478;SDS011;46321;48.398;11.754;2022-08-18T02:55:11;10.43;;;7.68;;
60478;SDS011;46321;48.398;11.754;2022-08-18T02:57:44;10.38;;;7.15;;
60478;SDS011;46321;48.398;11.754;2022-08-18T03:02:38;9.68;;;6.60;;
60478;SDS011;46321;48.398;11.754;2022-08-18T03:05:04;12.25;;;7.40;;
60478;SDS011;46321;48.398;11.754;2022-08-18T03:07:31;12.02;;;7.70;;
60478;SDS011;46321;48.398;11.754;2022-08-18T03:09:56;12.65;;;7.35;;
60478;SDS011;46321;48.398;11.754;2022-08-18T03:12:21;10.90;;;7.50;;
60478;SDS011;46321;48.398;11.754;2022-08-18T03:14:46;10.23;;;7.60;;
60478;SDS011;46321;48.398;11.754;2022-08-18T03:17:12;11.52;;;6.85;;
60478;SDS011;46321;48.398;11.754;2022-08-18T03:19:38;12.40;;;7.45;;
60478;SDS011;46321;48.398;11.754;2022-08-18T03:22:06;11.52;;;7.55;;
60478;SDS011;46321;48.398;11.754;2022-08-18T03:24:32;10.02;;;7.32;;
60478;SDS011;46321;48.398;11.754;2022-08-18T03:26:58;12.98;;;7.68;;
60478;SDS011;46321;48.398;11.754;2022-08-18T03:29:27;10.48;;;7.38;;
60478;SDS011;46321;48.398;11.754;2022-08-18T03:31:53;12.25;;;8.13;;
60478;SDS011;46321;48.398;11.754;2022-08-18T03:34:19;10.95;;;8.00;;
60478;SDS011;46321;48.398;11.754;2022-08-18T03:36:45;12.93;;;8.15;;
60478;SDS011;46321;48.398;11.754;2022-08-18T03:39:11;12.10;;;8.48;;
60478;SDS011;46321;48.398;11.754;2022-08-18T03:41:39;11.07;;;8.05;;
60478;SDS011;46321;48.398;11.754;2022-08-18T03:44:06;10.73;;;7.70;;
60478;SDS011;46321;48.398;11.754;2022-08-18T03:46:31;11.38;;;8.00;;
60478;SDS011;46321;48.398;11.754;2022-08-18T03:48:57;12.98;;;7.47;;
60478;SDS011;46321;48.398;11.754;2022-08-18T03:51:24;12.00;;;7.68;;
60478;SDS011;46321;48.398;11.754;2022-08-18T03:53:52;12.98;;;7.43;;
60478;SDS011;46321;48.398;11.754;2022-08-18T03:56:21;12.35;;;7.53;;
60478;SDS011;46321;48.398;11.754;2022-08-18T03:58:57;11.13;;;7.75;;
60478;SDS011;46321;48.398;11.754;2022-08-18T04:01:25;11.32;;;6.50;;
60478;SDS011;46321;48.398;11.754;2022-08-18T04:03:53;10.55;;;7.43;;
60478;SDS011;46321;48.398;11.754;2022-08-18T04:06:25;11.52;;;8.35;;
60478;SDS011;46321;48.398;11.754;2022-08-18T04:08:52;10.32;;;7.68;;
60478;SDS011;46321;48.398;11.754;2022-08-18T04:11:19;10.98;;;7.40;;
60478;SDS011;46321;48.398;11.754;2022-08-18T04:13:44;12.43;;;8.02;;
60478;SDS011;46321;48.398;11.754;2022-08-18T04:16:11;13.60;;;8.65;;
60478;SDS011;46321;48.398;11.754;2022-08-18T04:18:37;10.27;;;7.50;;
60478;SDS011;46321;48.398;11.754;2022-08-18T04:21:03;11.00;;;7.78;;
60478;SDS011;46321;48.398;11.754;2022-08-18T04:23:35;11.55;;;7.28;;
60478;SDS011;46321;48.398;11.754;2022-08-18T04:26:02;12.77;;;8.32;;
60478;SDS011;46321;48.398;11.754;2022-08-18T04:28:29;11.43;;;8.05;;
60478;SDS011;46321;48.398;11.754;2022-08-18T04:30:55;13.65;;;7.82;;
60478;SDS011;46321;48.398;11.754;2022-08-18T04:33:23;11.00;;;7.72;;
60478;SDS011;46321;48.398;11.754;2022-08-18T04:35:50;11.38;;;7.70;;
60478;SDS011;46321;48.398;11.754;2022-08-18T04:38:15;12.35;;;8.02;;
60478;SDS011;46321;48.398;11.754;2022-08-18T04:40:40;11.07;;;7.82;;
60478;SDS011;46321;48.398;11.754;2022-08-18T04:43:06;10.73;;;7.68;;
60478;SDS011;46321;48.398;11.754;2022-08-18T04:45:40;14.50;;;8.65;;
60478;SDS011;46321;48.398;11.754;2022-08-18T04:48:08;12.23;;;7.82;;
60478;SDS011;46321;48.398;11.754;2022-08-18T04:50:35;13.70;;;8.40;;
60478;SDS011;46321;48.398;11.754;2022-08-18T04:53:01;12.35;;;7.80;;
60478;SDS011;46321;48.398;11.754;2022-08-18T04:55:46;12.35;;;8.45;;
60478;SDS011;46321;48.398;11.754;2022-08-18T04:58:16;14.60;;;7.97;;
60478;SDS011;46321;48.398;11.754;2022-08-18T05:00:43;12.43;;;7.82;;
60478;SDS011;46321;48.398;11.754;2022-08-18T05:03:09;10.52;;;7.47;;
60478;SDS011;46321;48.398;11.754;2022-08-18T05:05:35;10.45;;;7.63;;
60478;SDS011;46321;48.398;11.754;2022-08-18T05:08:00;11.07;;;7.82;;
60478;SDS011;46321;48.398;11.754;2022-08-18T05:10:26;10.98;;;7.70;;
60478;SDS011;46321;48.398;11.754;2022-08-18T05:12:51;12.23;;;8.10;;
60478;SDS011;46321;48.398;11.754;2022-08-18T05:15:16;13.77;;;8.13;;
60478;SDS011;46321;48.398;11.754;2022-08-18T05:17:43;14.02;;;8.27;;
60478;SDS011;46321;48.398;11.754;2022-08-18T05:20:09;12.18;;;7.38;;
60478;SDS011;46321;48.398;11.754;2022-08-18T05:22:38;11.15;;;7.75;;
60478;SDS011;46321;48.398;11.754;2022-08-18T05:25:06;13.52;;;7.82;;
60478;SDS011;46321;48.398;11.754;2022-08-18T05:27:34;11.90;;;7.80;;
60478;SDS011;46321;48.398;11.754;2022-08-18T05:30:02;10.38;;;7.45;;
60478;SDS011;46321;48.398;11.754;2022-08-18T05:32:31;12.75;;;7.40;;
60478;SDS011;46321;48.398;11.754;2022-08-18T05:35:01;10.80;;;7.30;;
60478;SDS011;46321;48.398;11.754;2022-08-18T05:37:33;9.68;;;6.60;;
60478;SDS011;46321;48.398;11.754;2022-08-18T05:40:06;10.40;;;7.10;;
60478;SDS011;46321;48.398;11.754;2022-08-18T05:42:36;13.63;;;7.43;;
60478;SDS011;46321;48.398;11.754;2022-08-18T05:45:06;12.60;;;7.50;;
60478;SDS011;46321;48.398;11.754;2022-08-18T05:47:35;11.82;;;7.40;;
60478;SDS011;46321;48.398;11.754;2022-08-18T05:50:05;10.52;;;7.03;;
60478;SDS011;46321;48.398;11.754;2022-08-18T05:55:13;9.45;;;7.00;;
60478;SDS011;46321;48.398;11.754;2022-08-18T06:00:59;11.35;;;6.75;;
60478;SDS011;46321;48.398;11.754;2022-08-18T06:03:39;11.80;;;6.97;;
60478;SDS011;46321;48.398;11.754;2022-08-18T06:06:10;10.25;;;6.78;;
60478;SDS011;46321;48.398;11.754;2022-08-18T06:08:47;11.45;;;6.90;;
60478;SDS011;46321;48.398;11.754;2022-08-18T06:11:19;9.40;;;6.97;;
60478;SDS011;46321;48.398;11.754;2022-08-18T06:13:44;9.77;;;7.32;;
60478;SDS011;46321;48.398;11.754;2022-08-18T06:16:17;11.20;;;7.38;;
60478;SDS011;46321;48.398;11.754;2022-08-18T06:19:04;9.55;;;6.68;;
60478;SDS011;46321;48.398;11.754;2022-08-18T06:21:59;9.95;;;7.38;;
60478;SDS011;46321;48.398;11.754;2022-08-18T06:24:38;9.75;;;6.63;;
60478;SDS011;46321;48.398;11.754;2022-08-18T06:27:32;12.20;;;7.82;;
60478;SDS011;46321;48.398;11.754;2022-08-18T06:41:01;10.82;;;7.07;;
60478;SDS011;46321;48.398;11.754;2022-08-18T06:43:34;9.15;;;6.70;;
60478;SDS011;46321;48.398;11.754;2022-08-18T06:46:16;12.10;;;6.38;;
60478;SDS011;46321;48.398;11.754;2022-08-18T06:48:44;9.57;;;6.63;;
60478;SDS011;46321;48.398;11.754;2022-08-18T06:51:18;9.38;;;6.60;;
60478;SDS011;46321;48.398;11.754;2022-08-18T06:59:13;10.45;;;7.30;;
60478;SDS011;46321;48.398;11.754;2022-08-18T07:01:38;9.10;;;6.78;;
60478;SDS011;46321;48.398;11.754;2022-08-18T07:04:04;8.63;;;6.60;;
60478;SDS011;46321;48.398;11.754;2022-08-18T07:06:30;10.80;;;6.82;;
60478;SDS011;46321;48.398;11.754;2022-08-18T07:09:16;15.30;;;10.45;;
60478;SDS011;46321;48.398;11.754;2022-08-18T07:12:03;9.98;;;7.57;;
60478;SDS011;46321;48.398;11.754;2022-08-18T07:14:31;9.13;;;6.72;;
60478;SDS011;46321;48.398;11.754;2022-08-18T07:17:07;12.35;;;7.18;;
60478;SDS011;46321;48.398;11.754;2022-08-18T07:19:34;11.10;;;6.13;;
60478;SDS011;46321;48.398;11.754;2022-08-18T07:22:20;9.20;;;6.50;;
60478;SDS011;46321;48.398;11.754;2022-08-18T07:24:46;9.10;;;6.50;;
60478;SDS011;46321;48.398;11.754;2022-08-18T07:27:14;9.07;;;6.82;;
60478;SDS011;46321;48.398;11.754;2022-08-18T07:29:58;8.75;;;6.45;;
60478;SDS011;46321;48.398;11.754;2022-08-18T07:32:25;7.18;;;5.88;;
60478;SDS011;46321;48.398;11.754;2022-08-18T07:34:56;8.43;;;6.95;;
60478;SDS011;46321;48.398;11.754;2022-08-18T07:37:59;9.32;;;6.78;;
60478;SDS011;46321;48.398;11.754;2022-08-18T07:40:26;8.77;;;7.00;;
60478;SDS011;46321;48.398;11.754;2022-08-18T07:42:58;9.82;;;6.63;;
60478;SDS011;46321;48.398;11.754;2022-08-18T07:45:32;9.02;;;6.85;;
60478;SDS011;46321;48.398;11.754;2022-08-18T07:48:04;9.32;;;6.60;;
60478;SDS011;46321;48.398;11.754;2022-08-18T07:51:00;9.02;;;6.78;;
60478;SDS011;46321;48.398;11.754;2022-08-18T07:53:31;8.77;;;6.90;;
60478;SDS011;46321;48.398;11.754;2022-08-18T07:58:47;9.10;;;6.43;;
60478;SDS011;46321;48.398;11.754;2022-08-18T08:01:25;10.45;;;6.45;;
60478;SDS011;46321;48.398;11.754;2022-08-18T08:04:10;10.75;;;6.85;;
60478;SDS011;46321;48.398;11.754;2022-08-18T08:06:41;9.95;;;6.55;;
60478;SDS011;46321;48.398;11.754;2022-08-18T08:09:15;10.98;;;7.07;;
60478;SDS011;46321;48.398;11.754;2022-08-18T08:11:52;8.98;;;6.72;;
60478;SDS011;46321;48.398;11.754;2022-08-18T08:14:28;8.55;;;6.50;;
60478;SDS011;46321;48.398;11.754;2022-08-18T08:17:18;8.32;;;5.88;;
60478;SDS011;46321;48.398;11.754;2022-08-18T08:27:36;8.18;;;6.15;;
60478;SDS011;46321;48.398;11.754;2022-08-18T08:30:07;8.40;;;6.40;;
60478;SDS011;46321;48.398;11.754;2022-08-18T08:32:40;7.85;;;5.90;;
60478;SDS011;46321;48.398;11.754;2022-08-18T08:35:11;9.07;;;5.85;;
60478;SDS011;46321;48.398;11.754;2022-08-18T08:37:42;12.90;;;6.30;;
60478;SDS011;46321;48.398;11.754;2022-08-18T08:45:29;7.63;;;6.10;;
60478;SDS011;46321;48.398;11.754;2022-08-18T08:48:04;6.22;;;5.60;;
60478;SDS011;46321;48.398;11.754;2022-08-18T08:50:42;8.75;;;5.30;;
60478;SDS011;46321;48.398;11.754;2022-08-18T08:53:44;7.95;;;6.07;;
60478;SDS011;46321;48.398;11.754;2022-08-18T08:56:07;11.27;;;6.18;;
60478;SDS011;46321;48.398;11.754;2022-08-18T09:07:18;8.43;;;5.88;;
60478;SDS011;46321;48.398;11.754;2022-08-18T09:15:31;7.28;;;6.10;;
60478;SDS011;46321;48.398;11.754;2022-08-18T09:23:25;8.20;;;5.70;;
60478;SDS011;46321;48.398;11.754;2022-08-18T09:25:58;7.80;;;5.70;;
60478;SDS011;46321;48.398;11.754;2022-08-18T09:31:21;6.28;;;5.60;;
60478;SDS011;46321;48.398;11.754;2022-08-18T09:33:51;6.97;;;5.03;;
60478;SDS011;46321;48.398;11.754;2022-08-18T09:36:46;9.60;;;6.05;;
60478;SDS011;46321;48.398;11.754;2022-08-18T09:39:30;6.60;;;5.70;;
60478;SDS011;46321;48.398;11.754;2022-08-18T09:42:40;5.95;;;5.20;;
60478;SDS011;46321;48.398;11.754;2022-08-18T09:47:56;5.43;;;4.70;;
60478;SDS011;46321;48.398;11.754;2022-08-18T09:52:51;5.30;;;4.80;;
60478;SDS011;46321;48.398;11.754;2022-08-18T09:57:42;5.40;;;4.90;;
60478;SDS011;46321;48.398;11.754;2022-08-18T10:10:52;4.13;;;3.70;;
60478;SDS011;46321;48.398;11.754;2022-08-18T10:13:42;4.72;;;4.30;;
60478;SDS011;46321;48.398;11.754;2022-08-18T10:16:27;8.68;;;4.57;;
60478;SDS011;46321;48.398;11.754;2022-08-18T10:19:25;6.43;;;4.75;;
60478;SDS011;46321;48.398;11.754;2022-08-18T10:22:00;4.60;;;4.20;;
60478;SDS011;46321;48.398;11.754;2022-08-18T10:24:32;4.68;;;4.13;;
60478;SDS011;46321;48.398;11.754;2022-08-18T10:27:01;6.13;;;4.47;;
60478;SDS011;46321;48.398;11.754;2022-08-18T10:34:37;5.07;;;4.50;;
60478;SDS011;46321;48.398;11.754;2022-08-18T10:40:03;6.28;;;4.93;;
60478;SDS011;46321;48.398;11.754;2022-08-18T10:42:40;8.60;;;6.05;;
60478;SDS011;46321;48.398;11.754;2022-08-18T10:45:22;7.35;;;5.30;;
60478;SDS011;46321;48.398;11.754;2022-08-18T10:48:11;6.13;;;4.80;;
60478;SDS011;46321;48.398;11.754;2022-08-18T10:50:48;4.90;;;4.43;;
60478;SDS011;46321;48.398;11.754;2022-08-18T11:04:51;4.93;;;4.45;;
60478;SDS011;46321;48.398;11.754;2022-08-18T11:07:19;5.32;;;4.82;;
60478;SDS011;46321;48.398;11.754;2022-08-18T11:09:48;5.72;;;4.53;;
60478;SDS011;46321;48.398;11.754;2022-08-18T11:15:20;7.57;;;5.10;;
60478;SDS011;46321;48.398;11.754;2022-08-18T11:20:34;8.18;;;5.00;;
60478;SDS011;46321;48.398;11.754;2022-08-18T11:23:00;5.57;;;4.55;;
60478;SDS011;46321;48.398;11.754;2022-08-18T11:25:29;5.20;;;4.45;;
60478;SDS011;46321;48.398;11.754;2022-08-18T11:27:56;6.85;;;4.80;;
60478;SDS011;46321;48.398;11.754;2022-08-18T11:30:24;6.88;;;5.38;;
60478;SDS011;46321;48.398;11.754;2022-08-18T11:32:54;5.53;;;4.90;;
60478;SDS011;46321;48.398;11.754;2022-08-18T11:35:20;5.10;;;4.60;;
60478;SDS011;46321;48.398;11.754;2022-08-18T11:38:03;5.27;;;4.77;;
60478;SDS011;46321;48.398;11.754;2022-08-18T11:40:37;5.45;;;4.78;;
60478;SDS011;46321;48.398;11.754;2022-08-18T11:45:35;5.13;;;4.63;;
60478;SDS011;46321;48.398;11.754;2022-08-18T11:53:25;9.57;;;5.60;;
60478;SDS011;46321;48.398;11.754;2022-08-18T11:58:46;6.43;;;5.70;;
60478;SDS011;46321;48.398;11.754;2022-08-18T12:04:13;6.50;;;5.43;;
60478;SDS011;46321;48.398;11.754;2022-08-18T12:09:35;6.03;;;5.43;;
60478;SDS011;46321;48.398;11.754;2022-08-18T12:12:17;7.68;;;5.07;;
60478;SDS011;46321;48.398;11.754;2022-08-18T12:17:37;7.05;;;5.82;;
60478;SDS011;46321;48.398;11.754;2022-08-18T12:20:02;7.35;;;6.15;;
60478;SDS011;46321;48.398;11.754;2022-08-18T12:22:32;7.57;;;5.97;;
60478;SDS011;46321;48.398;11.754;2022-08-18T12:24:59;8.00;;;6.30;;
60478;SDS011;46321;48.398;11.754;2022-08-18T12:27:25;7.05;;;6.35;;
60478;SDS011;46321;48.398;11.754;2022-08-18T12:29:53;8.43;;;6.03;;
60478;SDS011;46321;48.398;11.754;2022-08-18T12:32:21;7.72;;;5.75;;
60478;SDS011;46321;48.398;11.754;2022-08-18T12:34:48;6.85;;;6.15;;
60478;SDS011;46321;48.398;11.754;2022-08-18T12:37:15;8.48;;;6.43;;
60478;SDS011;46321;48.398;11.754;2022-08-18T12:39:46;7.32;;;6.63;;
60478;SDS011;46321;48.398;11.754;2022-08-18T12:42:12;7.10;;;5.97;;
60478;SDS011;46321;48.398;11.754;2022-08-18T12:44:37;10.02;;;6.30;;
60478;SDS011;46321;48.398;11.754;2022-08-18T12:47:05;7.60;;;6.47;;
60478;SDS011;46321;48.398;11.754;2022-08-18T12:49:36;6.82;;;5.70;;
60478;SDS011;46321;48.398;11.754;2022-08-18T12:52:01;5.80;;;5.30;;
60478;SDS011;46321;48.398;11.754;2022-08-18T12:54:26;7.05;;;5.50;;
60478;SDS011;46321;48.398;11.754;2022-08-18T12:56:53;9.30;;;6.20;;
60478;SDS011;46321;48.398;11.754;2022-08-18T12:59:19;6.78;;;5.18;;
60478;SDS011;46321;48.398;11.754;2022-08-18T13:01:45;12.65;;;6.07;;
60478;SDS011;46321;48.398;11.754;2022-08-18T13:04:10;9.98;;;7.93;;
60478;SDS011;46321;48.398;11.754;2022-08-18T13:06:37;8.45;;;5.80;;
60478;SDS011;46321;48.398;11.754;2022-08-18T13:09:05;8.20;;;6.13;;
60478;SDS011;46321;48.398;11.754;2022-08-18T13:11:30;9.23;;;6.18;;
60478;SDS011;46321;48.398;11.754;2022-08-18T13:13:56;8.40;;;5.73;;
60478;SDS011;46321;48.398;11.754;2022-08-18T13:16:21;6.33;;;5.73;;
60478;SDS011;46321;48.398;11.754;2022-08-18T13:18:48;6.65;;;5.78;;
60478;SDS011;46321;48.398;11.754;2022-08-18T13:21:14;9.38;;;6.47;;
60478;SDS011;46321;48.398;11.754;2022-08-18T13:23:40;7.38;;;6.10;;
60478;SDS011;46321;48.398;11.754;2022-08-18T13:26:07;8.55;;;6.18;;
60478;SDS011;46321;48.398;11.754;2022-08-18T13:28:36;7.45;;;6.00;;
60478;SDS011;46321;48.398;11.754;2022-08-18T13:31:02;8.90;;;6.40;;
60478;SDS011;46321;48.398;11.754;2022-08-18T13:33:28;9.48;;;6.05;;
60478;SDS011;46321;48.398;11.754;2022-08-18T13:35:54;8.17;;;5.90;;
60478;SDS011;46321;48.398;11.754;2022-08-18T13:38:19;10.37;;;6.00;;
60478;SDS011;46321;48.398;11.754;2022-08-18T13:40:47;9.27;;;6.18;;
60478;SDS011;46321;48.398;11.754;2022-08-18T13:43:14;6.97;;;5.85;;
60478;SDS011;46321;48.398;11.754;2022-08-18T13:45:41;8.02;;;5.78;;
60478;SDS011;46321;48.398;11.754;2022-08-18T13:48:08;11.43;;;6.32;;
60478;SDS011;46321;48.398;11.754;2022-08-18T13:50:34;6.97;;;6.18;;
60478;SDS011;46321;48.398;11.754;2022-08-18T13:53:00;6.85;;;5.93;;
60478;SDS011;46321;48.398;11.754;2022-08-18T13:55:26;6.90;;;5.93;;
60478;SDS011;46321;48.398;11.754;2022-08-18T13:57:52;7.75;;;6.20;;
60478;SDS011;46321;48.398;11.754;2022-08-18T14:00:19;7.00;;;6.07;;
60478;SDS011;46321;48.398;11.754;2022-08-18T14:02:46;9.90;;;6.60;;
60478;SDS011;46321;48.398;11.754;2022-08-18T14:05:14;8.07;;;5.78;;
60478;SDS011;46321;48.398;11.754;2022-08-18T14:07:40;9.10;;;6.57;;
60478;SDS011;46321;48.398;11.754;2022-08-18T14:10:06;7.35;;;6.00;;
60478;SDS011;46321;48.398;11.754;2022-08-18T14:12:34;10.30;;;6.32;;
60478;SDS011;46321;48.398;11.754;2022-08-18T14:15:02;9.45;;;6.40;;
60478;SDS011;46321;48.398;11.754;2022-08-18T14:17:31;7.53;;;6.20;;
60478;SDS011;46321;48.398;11.754;2022-08-18T14:19:57;8.00;;;5.72;;
60478;SDS011;46321;48.398;11.754;2022-08-18T14:22:41;9.05;;;6.25;;
60478;SDS011;46321;48.398;11.754;2022-08-18T14:25:25;8.48;;;6.03;;
60478;SDS011;46321;48.398;11.754;2022-08-18T14:28:08;6.75;;;5.90;;
60478;SDS011;46321;48.398;11.754;2022-08-18T14:30:34;7.17;;;5.93;;
60478;SDS011;46321;48.398;11.754;2022-08-18T14:33:01;6.13;;;5.35;;
60478;SDS011;46321;48.398;11.754;2022-08-18T14:35:29;7.68;;;5.47;;
60478;SDS011;46321;48.398;11.754;2022-08-18T14:37:55;8.37;;;5.67;;
60478;SDS011;46321;48.398;11.754;2022-08-18T14:40:20;6.15;;;5.43;;
60478;SDS011;46321;48.398;11.754;2022-08-18T14:42:45;7.33;;;5.50;;
60478;SDS011;46321;48.398;11.754;2022-08-18T14:45:11;8.73;;;5.80;;
60478;SDS011;46321;48.398;11.754;2022-08-18T14:47:38;6.82;;;5.75;;
60478;SDS011;46321;48.398;11.754;2022-08-18T14:50:06;9.43;;;6.03;;
60478;SDS011;46321;48.398;11.754;2022-08-18T14:52:36;9.23;;;5.82;;
60478;SDS011;46321;48.398;11.754;2022-08-18T14:55:03;6.90;;;5.60;;
60478;SDS011;46321;48.398;11.754;2022-08-18T14:57:29;9.25;;;5.75;;
60478;SDS011;46321;48.398;11.754;2022-08-18T14:59:54;12.87;;;6.60;;
60478;SDS011;46321;48.398;11.754;2022-08-18T15:02:20;7.88;;;6.22;;
60478;SDS011;46321;48.398;11.754;2022-08-18T15:04:45;9.82;;;6.00;;
60478;SDS011;46321;48.398;11.754;2022-08-18T15:07:10;7.20;;;5.47;;
60478;SDS011;46321;48.398;11.754;2022-08-18T15:09:36;7.97;;;6.67;;
60478;SDS011;46321;48.398;11.754;2022-08-18T15:12:01;9.90;;;5.97;;
60478;SDS011;46321;48.398;11.754;2022-08-18T15:14:28;5.97;;;5.38;;
60478;SDS011;46321;48.398;11.754;2022-08-18T15:16:55;6.72;;;6.07;;
60478;SDS011;46321;48.398;11.754;2022-08-18T15:19:22;6.30;;;5.70;;
60478;SDS011;46321;48.398;11.754;2022-08-18T15:21:48;6.90;;;5.80;;
60478;SDS011;46321;48.398;11.754;2022-08-18T15:24:32;8.27;;;5.70;;
60478;SDS011;46321;48.398;11.754;2022-08-18T15:27:15;6.15;;;5.25;;
60478;SDS011;46321;48.398;11.754;2022-08-18T15:29:41;10.67;;;6.33;;
60478;SDS011;46321;48.398;11.754;2022-08-18T15:32:06;10.20;;;5.85;;
60478;SDS011;46321;48.398;11.754;2022-08-18T15:34:32;9.52;;;5.50;;
60478;SDS011;46321;48.398;11.754;2022-08-18T15:36:58;8.65;;;5.55;;
60478;SDS011;46321;48.398;11.754;2022-08-18T15:39:24;6.20;;;5.47;;
60478;SDS011;46321;48.398;11.754;2022-08-18T15:41:49;7.22;;;5.55;;
60478;SDS011;46321;48.398;11.754;2022-08-18T15:44:19;7.75;;;6.03;;
60478;SDS011;46321;48.398;11.754;2022-08-18T15:46:45;9.23;;;5.80;;
60478;SDS011;46321;48.398;11.754;2022-08-18T15:49:16;9.88;;;6.47;;
60478;SDS011;46321;48.398;11.754;2022-08-18T15:51:42;8.38;;;5.50;;
60478;SDS011;46321;48.398;11.754;2022-08-18T15:54:09;7.65;;;5.38;;
60478;SDS011;46321;48.398;11.754;2022-08-18T15:56:35;6.90;;;5.95;;
60478;SDS011;46321;48.398;11.754;2022-08-18T15:59:01;7.37;;;5.33;;
60478;SDS011;46321;48.398;11.754;2022-08-18T16:01:28;7.00;;;5.22;;
60478;SDS011;46321;48.398;11.754;2022-08-18T16:03:53;7.85;;;5.93;;
60478;SDS011;46321;48.398;11.754;2022-08-18T16:06:20;6.82;;;5.93;;
60478;SDS011;46321;48.398;11.754;2022-08-18T16:08:48;10.35;;;6.20;;
60478;SDS011;46321;48.398;11.754;2022-08-18T16:11:15;8.32;;;6.07;;
60478;SDS011;46321;48.398;11.754;2022-08-18T16:13:41;8.27;;;5.95;;
60478;SDS011;46321;48.398;11.754;2022-08-18T16:16:10;9.32;;;6.50;;
60478;SDS011;46321;48.398;11.754;2022-08-18T16:18:38;9.68;;;6.57;;
60478;SDS011;46321;48.398;11.754;2022-08-18T16:21:05;9.50;;;6.50;;
60478;SDS011;46321;48.398;11.754;2022-08-18T16:23:35;12.18;;;6.50;;
60478;SDS011;46321;48.398;11.754;2022-08-18T16:26:01;10.15;;;6.22;;
60478;SDS011;46321;48.398;11.754;2022-08-18T16:28:27;8.60;;;6.03;;
60478;SDS011;46321;48.398;11.754;2022-08-18T16:30:53;7.75;;;6.07;;
60478;SDS011;46321;48.398;11.754;2022-08-18T16:33:18;7.35;;;6.32;;
60478;SDS011;46321;48.398;11.754;2022-08-18T16:35:44;8.18;;;6.00;;
60478;SDS011;46321;48.398;11.754;2022-08-18T16:38:11;9.10;;;6.22;;
60478;SDS011;46321;48.398;11.754;2022-08-18T16:40:37;9.75;;;6.18;;
60478;SDS011;46321;48.398;11.754;2022-08-18T16:43:04;20.50;;;12.80;;
60478;SDS011;46321;48.398;11.754;2022-08-18T16:45:30;18.50;;;13.40;;
60478;SDS011;46321;48.398;11.754;2022-08-18T16:47:57;10.68;;;8.40;;
60478;SDS011;46321;48.398;11.754;2022-08-18T16:50:22;11.03;;;6.57;;